This is the latest recevied weather packets stored in our database for station/object DB0SMU-12. If no packets are shown the sender has not sent any weather packets the latest 1 day(s).
| Time | Temp. | Humidity | Pressure | Rain* | Wind** | Luminosity | Snow |
|---|---|---|---|---|---|---|---|
| 1778085385 | 12.78° C | 66% | 1008.6 hPa | 0 mm | - | - | - |
| 1778084481 | 12.78° C | 70% | 1008.5 hPa | 0 mm | - | - | - |
| 1778083757 | 12.78° C | 70% | 1008.1 hPa | 0 mm | - | - | - |
| 1778083576 | 12.78° C | 69% | 1008 hPa | 0 mm | - | - | - |
| 1778082491 | 14.44° C | 64% | 1008.1 hPa | 0 mm | - | - | - |
| 1778082310 | 15° C | 63% | 1007.9 hPa | 0 mm | - | - | - |
| 1778082129 | 16.11° C | 61% | 1007.9 hPa | 0 mm | - | - | - |
| 1778081948 | 16.67° C | 64% | 1007.4 hPa | 0 mm | - | - | - |
| 1778081767 | 16.67° C | 63% | 1007.2 hPa | 0 mm | - | - | - |
| 1778081586 | 16.67° C | 61% | 1007.1 hPa | 0 mm | - | - | - |
| 1778081224 | 17.22° C | 61% | 1006.9 hPa | 0 mm | - | - | - |
| 1778081043 | 17.22° C | 61% | 1006.8 hPa | 0 mm | - | - | - |
| 1778080139 | 17.22° C | 56% | 1006.6 hPa | 0 mm | - | - | - |
| 1778079958 | 17.22° C | 58% | 1006.6 hPa | 0 mm | - | - | - |
| 1778079777 | 17.22° C | 57% | 1006.7 hPa | 0 mm | - | - | - |
| 1778079596 | 17.22° C | 58% | 1006.6 hPa | 0 mm | - | - | - |
| 1778079415 | 17.22° C | 60% | 1006.9 hPa | 0 mm | - | - | - |
| 1778078511 | 17.22° C | 59% | 1006.7 hPa | 0 mm | - | - | - |
| 1778078330 | 17.22° C | 59% | 1006.8 hPa | 0 mm | - | - | - |
| 1778078150 | 17.22° C | 59% | 1006.7 hPa | 0 mm | - | - | - |
| 1778077245 | 16.67° C | 67% | 1007 hPa | 0 mm | - | - | - |
| 1778077064 | 16.67° C | 68% | 1006.9 hPa | 0 mm | - | - | - |
| 1778076883 | 16.67° C | 68% | 1007 hPa | 0 mm | - | - | - |
| 1778076702 | 16.67° C | 69% | 1007.1 hPa | 0 mm | - | - | - |
| 1778076160 | 15.56° C | 72% | 1007 hPa | 0 mm | - | - | - |
* Rain latest hour (hover to see other rain measurements)
** Current wind speed in m/s (hover to see current wind gust speed)